createdAt,value
2022-11-28T00:01:39.310Z,16.42
2022-11-28T00:04:10.611Z,14.60
2022-11-28T00:06:40.815Z,16.95
2022-11-28T00:09:08.752Z,14.68
2022-11-28T00:11:36.035Z,16.95
2022-11-28T00:14:03.370Z,19.15
2022-11-28T00:16:30.952Z,16.17
2022-11-28T00:19:01.023Z,13.20
2022-11-28T00:21:29.300Z,12.63
2022-11-28T00:24:01.861Z,13.43
2022-11-28T00:26:32.288Z,13.00
2022-11-28T00:29:06.594Z,13.27
2022-11-28T00:31:43.202Z,16.27
2022-11-28T00:36:47.051Z,14.60
2022-11-28T00:39:16.526Z,13.48
2022-11-28T00:41:45.097Z,12.40
2022-11-28T00:44:12.974Z,14.85
2022-11-28T00:46:40.879Z,12.05
2022-11-28T00:49:09.427Z,14.43
2022-11-28T00:51:40.210Z,14.98
2022-11-28T00:54:10.384Z,10.63
2022-11-28T00:56:39.654Z,12.88
2022-11-28T00:59:08.261Z,14.38
2022-11-28T01:01:39.406Z,13.32
2022-11-28T01:04:11.352Z,13.02
2022-11-28T01:06:41.988Z,13.43
2022-11-28T01:09:20.215Z,12.35
2022-11-28T01:11:51.966Z,12.00
2022-11-28T01:14:22.006Z,12.50
2022-11-28T01:17:00.083Z,11.25
2022-11-28T01:19:35.222Z,11.18
2022-11-28T01:22:06.661Z,17.05
2022-11-28T01:24:34.956Z,11.85
2022-11-28T01:27:02.142Z,11.25
2022-11-28T01:29:29.977Z,14.45
2022-11-28T01:31:59.720Z,13.65
2022-11-28T01:34:30.549Z,14.05
2022-11-28T01:37:00.563Z,11.68
2022-11-28T01:39:28.918Z,12.90
2022-11-28T01:42:00.130Z,11.40
2022-11-28T01:44:27.712Z,10.73
2022-11-28T01:46:58.442Z,9.50
2022-11-28T01:49:37.194Z,11.40
2022-11-28T01:52:16.770Z,12.25
2022-11-28T01:54:49.214Z,12.93
2022-11-28T01:57:20.633Z,11.63
2022-11-28T01:59:55.818Z,12.25
2022-11-28T02:02:34.823Z,10.37
2022-11-28T02:05:09.719Z,11.68
2022-11-28T02:07:40.497Z,9.73
2022-11-28T02:10:13.593Z,11.27
2022-11-28T02:13:00.047Z,11.45
2022-11-28T02:15:54.811Z,11.93
2022-11-28T02:18:52.864Z,12.27
2022-11-28T02:21:33.428Z,9.48
2022-11-28T02:24:46.198Z,10.90
2022-11-28T02:27:16.564Z,12.25
2022-11-28T02:30:16.579Z,12.45
2022-11-28T02:33:00.776Z,9.82
2022-11-28T02:35:50.724Z,9.98
2022-11-28T02:38:39.537Z,9.55
2022-11-28T02:41:10.286Z,9.35
2022-11-28T02:43:50.745Z,11.68
2022-11-28T02:46:46.171Z,11.65
2022-11-28T02:49:30.960Z,10.63
2022-11-28T02:52:18.249Z,12.18
2022-11-28T02:54:46.940Z,9.32
2022-11-28T02:57:14.389Z,11.82
2022-11-28T02:59:42.641Z,9.65
2022-11-28T03:02:30.990Z,9.73
2022-11-28T03:05:40.147Z,10.10
2022-11-28T03:08:23.115Z,10.27
2022-11-28T03:10:50.634Z,10.05
2022-11-28T03:13:32.246Z,9.52
2022-11-28T03:16:19.687Z,10.82
2022-11-28T03:18:58.752Z,13.93
2022-11-28T03:21:33.993Z,9.15
2022-11-28T03:24:25.176Z,10.73
2022-11-28T03:26:55.664Z,11.07
2022-11-28T03:29:45.038Z,9.82
2022-11-28T03:32:39.969Z,10.68
2022-11-28T03:35:18.287Z,11.57
2022-11-28T03:37:55.974Z,8.77
2022-11-28T03:40:33.443Z,9.88
2022-11-28T03:43:13.667Z,8.80
2022-11-28T03:45:52.117Z,9.90
2022-11-28T03:48:29.120Z,10.10
2022-11-28T03:51:07.601Z,11.25
2022-11-28T03:53:59.623Z,11.52
2022-11-28T03:56:40.325Z,12.60
2022-11-28T03:59:38.387Z,10.85
2022-11-28T04:02:30.396Z,11.30
2022-11-28T04:05:12.273Z,14.32
2022-11-28T04:08:17.038Z,10.60
2022-11-28T04:10:56.261Z,10.90
2022-11-28T04:13:54.331Z,9.32
2022-11-28T04:16:34.309Z,8.43
2022-11-28T04:19:05.949Z,8.63
2022-11-28T04:21:57.923Z,9.88
2022-11-28T04:24:50.353Z,9.68
2022-11-28T04:27:24.105Z,11.63
2022-11-28T04:29:58.826Z,11.57
2022-11-28T04:32:33.317Z,10.13
2022-11-28T04:35:06.812Z,11.27
2022-11-28T04:37:37.508Z,11.10
2022-11-28T04:40:11.545Z,14.68
2022-11-28T04:42:52.934Z,12.15
2022-11-28T04:45:44.217Z,10.63
2022-11-28T04:48:12.543Z,12.10
2022-11-28T04:51:02.681Z,13.40
2022-11-28T04:53:40.115Z,10.65
2022-11-28T04:56:16.508Z,9.98
2022-11-28T04:58:49.304Z,10.63
2022-11-28T05:01:26.262Z,12.38
2022-11-28T05:03:55.290Z,11.20
2022-11-28T05:06:34.883Z,11.48
2022-11-28T05:09:02.656Z,11.25
2022-11-28T05:11:31.343Z,10.35
2022-11-28T05:13:59.221Z,11.18
2022-11-28T05:16:27.193Z,14.77
2022-11-28T05:18:54.779Z,12.75
2022-11-28T05:21:22.083Z,11.63
2022-11-28T05:23:49.756Z,12.02
2022-11-28T05:26:20.789Z,12.68
2022-11-28T05:28:51.567Z,11.20
2022-11-28T05:31:21.409Z,12.05
2022-11-28T05:33:48.994Z,13.07
2022-11-28T05:36:19.342Z,15.60
2022-11-28T05:38:48.647Z,12.98
2022-11-28T05:41:31.337Z,13.57
2022-11-28T05:44:02.722Z,14.68
2022-11-28T05:46:30.412Z,12.20
2022-11-28T05:48:58.719Z,13.60
2022-11-28T05:51:26.183Z,14.52
2022-11-28T05:53:53.689Z,15.48
2022-11-28T05:56:25.622Z,16.58
2022-11-28T05:58:55.646Z,13.45
2022-11-28T06:01:26.327Z,15.18
2022-11-28T06:04:00.265Z,15.80
2022-11-28T06:06:33.373Z,16.83
2022-11-28T06:09:01.545Z,16.17
2022-11-28T06:11:32.127Z,15.68
2022-11-28T06:14:00.477Z,13.45
2022-11-28T06:16:29.891Z,15.48
2022-11-28T06:19:04.207Z,14.85
2022-11-28T06:21:32.787Z,14.23
2022-11-28T06:24:01.882Z,16.17
2022-11-28T06:26:46.850Z,17.80
2022-11-28T06:29:16.555Z,15.30
2022-11-28T06:35:09.548Z,15.15
2022-11-28T06:37:37.599Z,17.83
2022-11-28T06:40:38.039Z,16.80
2022-11-28T06:43:05.203Z,13.38
2022-11-28T06:45:34.522Z,14.45
2022-11-28T06:48:02.009Z,16.65
2022-11-28T06:50:29.154Z,12.40
2022-11-28T06:52:56.205Z,14.63
2022-11-28T06:55:23.268Z,15.52
2022-11-28T06:57:50.914Z,15.63
2022-11-28T07:00:18.101Z,17.45
2022-11-28T07:02:45.333Z,17.20
2022-11-28T07:05:16.944Z,13.80
2022-11-28T07:07:53.583Z,16.08
2022-11-28T07:10:22.375Z,15.20
2022-11-28T07:13:05.084Z,14.90
2022-11-28T07:15:33.074Z,14.15
2022-11-28T07:18:00.117Z,16.90
2022-11-28T07:20:27.724Z,15.73
2022-11-28T07:22:55.047Z,17.50
2022-11-28T07:25:22.243Z,16.15
2022-11-28T07:27:49.284Z,13.25
2022-11-28T07:30:16.349Z,14.07
2022-11-28T07:32:43.363Z,13.20
2022-11-28T07:35:10.636Z,15.32
2022-11-28T07:37:37.565Z,16.67
2022-11-28T07:40:06.612Z,13.15
2022-11-28T07:42:34.192Z,14.57
2022-11-28T07:45:05.777Z,13.93
2022-11-28T07:47:34.225Z,12.27
2022-11-28T07:50:02.283Z,14.10
2022-11-28T07:52:30.878Z,14.93
2022-11-28T07:54:57.826Z,13.02
2022-11-28T07:57:24.824Z,13.68
2022-11-28T07:59:51.818Z,12.82
2022-11-28T08:02:18.934Z,14.85
2022-11-28T08:04:50.572Z,13.82
2022-11-28T08:07:19.892Z,13.23
2022-11-28T08:09:46.910Z,16.25
2022-11-28T08:12:15.212Z,13.65
2022-11-28T08:14:42.670Z,16.55
2022-11-28T08:17:09.806Z,14.85
2022-11-28T08:19:37.838Z,13.30
2022-11-28T08:22:06.730Z,14.77
2022-11-28T08:24:34.816Z,12.75
2022-11-28T08:27:01.851Z,16.48
2022-11-28T08:29:28.908Z,12.73
2022-11-28T08:31:58.548Z,12.38
2022-11-28T08:34:25.716Z,17.17
2022-11-28T08:36:52.792Z,20.13
2022-11-28T08:39:24.324Z,18.98
2022-11-28T08:41:52.867Z,16.98
2022-11-28T08:44:19.753Z,15.77
2022-11-28T08:46:46.804Z,16.40
2022-11-28T08:49:13.874Z,13.90
2022-11-28T08:51:40.921Z,13.68
2022-11-28T08:54:08.074Z,14.02
2022-11-28T08:56:35.598Z,13.13
2022-11-28T08:59:03.172Z,13.90
2022-11-28T09:01:30.987Z,13.77
2022-11-28T09:03:58.062Z,11.93
2022-11-28T09:06:25.408Z,15.23
2022-11-28T09:08:54.251Z,13.32
2022-11-28T09:11:23.170Z,14.50
2022-11-28T09:13:50.351Z,15.75
2022-11-28T09:16:18.184Z,14.73
2022-11-28T09:18:45.536Z,13.00
2022-11-28T09:21:14.485Z,16.08
2022-11-28T09:23:43.119Z,15.60
2022-11-28T09:26:13.322Z,14.63
2022-11-28T09:28:40.695Z,16.73
2022-11-28T09:31:08.498Z,14.88
2022-11-28T09:33:36.114Z,17.15
2022-11-28T09:36:09.926Z,14.60
2022-11-28T09:38:37.768Z,13.75
2022-11-28T09:41:19.331Z,14.30
2022-11-28T09:43:53.457Z,15.98
2022-11-28T09:46:29.132Z,16.08
2022-11-28T09:49:00.754Z,15.02
2022-11-28T09:51:56.773Z,17.63
2022-11-28T09:54:37.386Z,14.18
2022-11-28T09:57:13.796Z,16.55
2022-11-28T09:59:41.210Z,15.45
2022-11-28T10:02:28.382Z,15.77
2022-11-28T10:05:19.625Z,16.15
2022-11-28T10:08:19.787Z,15.50
2022-11-28T10:11:23.036Z,16.95
2022-11-28T10:14:08.455Z,19.08
2022-11-28T10:17:00.896Z,19.10
2022-11-28T10:19:55.368Z,18.38
2022-11-28T10:22:35.846Z,15.25
2022-11-28T10:25:11.564Z,18.33
2022-11-28T10:27:40.622Z,15.63
2022-11-28T10:30:20.735Z,13.95
2022-11-28T10:33:05.095Z,15.57
2022-11-28T10:35:48.670Z,18.23
2022-11-28T10:38:17.240Z,15.68
2022-11-28T10:40:55.964Z,14.27
2022-11-28T10:43:33.391Z,14.98
2022-11-28T10:46:24.643Z,16.95
2022-11-28T10:48:56.911Z,15.48
2022-11-28T10:51:23.949Z,17.75
2022-11-28T10:54:18.467Z,28.98
2022-11-28T10:56:58.200Z,19.00
2022-11-28T10:59:41.027Z,15.10
2022-11-28T11:02:28.182Z,14.00
2022-11-28T11:04:55.269Z,15.50
2022-11-28T11:07:33.450Z,15.13
2022-11-28T11:10:13.599Z,15.55
2022-11-28T11:12:41.359Z,16.60
2022-11-28T11:15:31.649Z,16.25
2022-11-28T11:18:04.523Z,15.13
2022-11-28T11:20:39.871Z,17.23
2022-11-28T11:23:22.860Z,17.17
2022-11-28T11:25:56.985Z,17.70
2022-11-28T11:28:45.856Z,16.27
2022-11-28T11:31:43.564Z,17.23
2022-11-28T11:34:17.798Z,16.38
2022-11-28T11:36:46.810Z,14.88
2022-11-28T11:39:13.785Z,17.20
2022-11-28T11:41:49.281Z,14.52
2022-11-28T11:44:19.187Z,13.60
2022-11-28T11:47:03.620Z,17.83
2022-11-28T11:49:33.662Z,15.90
2022-11-28T11:52:12.912Z,20.27
2022-11-28T11:55:16.866Z,14.70
2022-11-28T11:57:51.710Z,16.10
2022-11-28T12:00:22.481Z,17.25
2022-11-28T12:03:02.013Z,14.50
2022-11-28T12:06:12.886Z,13.73
2022-11-28T12:08:42.603Z,16.70
2022-11-28T12:13:43.254Z,15.75
2022-11-28T12:16:29.190Z,14.25
2022-11-28T12:19:08.667Z,17.75
2022-11-28T12:22:13.663Z,15.35
2022-11-28T12:25:11.408Z,15.27
2022-11-28T12:28:13.984Z,12.70
2022-11-28T12:31:06.547Z,16.88
2022-11-28T12:34:06.928Z,15.20
2022-11-28T12:36:54.699Z,17.88
2022-11-28T12:39:31.852Z,15.85
2022-11-28T12:42:11.499Z,14.77
2022-11-28T12:45:00.729Z,17.33
2022-11-28T12:48:01.775Z,18.17
2022-11-28T12:50:50.558Z,17.73
2022-11-28T12:53:42.736Z,18.17
2022-11-28T12:56:25.657Z,17.30
2022-11-28T12:59:02.776Z,16.48
2022-11-28T13:01:51.850Z,15.52
2022-11-28T13:04:27.934Z,17.65
2022-11-28T13:07:13.126Z,20.48
2022-11-28T13:10:25.071Z,17.25
2022-11-28T13:13:20.678Z,20.17
2022-11-28T13:16:30.979Z,17.30
2022-11-28T13:19:24.094Z,17.38
2022-11-28T13:22:09.619Z,17.23
2022-11-28T13:24:42.400Z,17.60
2022-11-28T13:27:37.128Z,16.30
2022-11-28T13:30:29.362Z,16.13
2022-11-28T13:33:41.414Z,18.63
2022-11-28T13:39:13.572Z,14.82
2022-11-28T13:42:13.962Z,16.02
2022-11-28T13:44:51.099Z,16.13
2022-11-28T13:48:06.082Z,17.50
2022-11-28T13:50:38.934Z,15.25
2022-11-28T13:53:12.574Z,18.95
2022-11-28T13:55:51.972Z,19.00
2022-11-28T13:58:24.745Z,18.10
2022-11-28T14:01:16.356Z,19.13
2022-11-28T14:03:49.029Z,16.90
2022-11-28T14:06:26.189Z,18.10
2022-11-28T14:09:05.834Z,17.60
2022-11-28T14:11:46.536Z,14.73
2022-11-28T14:14:32.421Z,19.45
2022-11-28T14:17:04.977Z,17.08
2022-11-28T14:19:59.532Z,14.85
2022-11-28T14:23:08.263Z,20.02
2022-11-28T14:25:51.152Z,16.08
2022-11-28T14:28:37.873Z,17.20
2022-11-28T14:31:11.229Z,16.58
2022-11-28T14:33:42.659Z,18.70
2022-11-28T14:36:35.974Z,23.30
2022-11-28T14:39:19.823Z,19.58
2022-11-28T14:42:25.448Z,17.13
2022-11-28T14:45:08.400Z,19.48
2022-11-28T14:47:42.541Z,19.98
2022-11-28T14:50:10.627Z,15.43
2022-11-28T14:52:40.769Z,19.55
2022-11-28T14:55:13.183Z,20.38
2022-11-28T14:58:02.242Z,20.30
2022-11-28T15:00:47.456Z,20.92
2022-11-28T15:03:23.131Z,17.70
2022-11-28T15:08:51.570Z,19.15
2022-11-28T15:11:27.613Z,18.25
2022-11-28T15:14:15.965Z,20.83
2022-11-28T15:16:50.513Z,21.15
2022-11-28T15:19:35.211Z,18.60
2022-11-28T15:22:05.665Z,20.08
2022-11-28T15:24:36.793Z,18.77
2022-11-28T15:27:07.256Z,20.48
2022-11-28T15:29:36.844Z,23.08
2022-11-28T15:32:06.547Z,21.63
2022-11-28T15:34:39.494Z,18.60
2022-11-28T15:37:19.465Z,16.02
2022-11-28T15:39:49.503Z,20.10
2022-11-28T15:42:30.412Z,25.33
2022-11-28T15:45:27.369Z,19.90
2022-11-28T15:47:56.743Z,21.92
2022-11-28T15:50:29.358Z,20.02
2022-11-28T15:53:17.796Z,26.23
2022-11-28T15:55:45.494Z,23.80
2022-11-28T15:58:21.598Z,25.67
2022-11-28T16:00:58.845Z,23.23
2022-11-28T16:03:31.648Z,19.63
2022-11-28T16:05:59.729Z,20.60
2022-11-28T16:08:35.518Z,20.85
2022-11-28T16:11:05.719Z,22.83
2022-11-28T16:13:34.226Z,23.40
2022-11-28T16:16:04.333Z,22.77
2022-11-28T16:18:32.954Z,21.75
2022-11-28T16:21:01.924Z,22.48
2022-11-28T16:23:34.564Z,21.13
2022-11-28T16:26:20.028Z,22.65
2022-11-28T16:28:59.738Z,27.37
2022-11-28T16:31:29.327Z,19.92
2022-11-28T16:33:57.580Z,21.90
2022-11-28T16:36:35.894Z,22.73
2022-11-28T16:39:11.075Z,21.88
2022-11-28T16:42:14.836Z,22.67
2022-11-28T16:44:42.200Z,23.42
2022-11-28T16:47:29.383Z,27.30
2022-11-28T16:50:04.920Z,24.10
2022-11-28T16:52:32.023Z,26.15
2022-11-28T16:54:59.806Z,23.48
2022-11-28T16:57:45.955Z,22.65
2022-11-28T17:00:13.340Z,23.92
2022-11-28T17:02:41.036Z,20.55
2022-11-28T17:05:09.497Z,20.27
2022-11-28T17:07:36.481Z,26.15
2022-11-28T17:10:03.859Z,23.13
2022-11-28T17:12:37.135Z,20.10
2022-11-28T17:15:04.719Z,21.70
2022-11-28T17:17:33.497Z,22.23
2022-11-28T17:20:01.732Z,23.20
2022-11-28T17:22:40.695Z,25.48
2022-11-28T17:25:16.323Z,22.15
2022-11-28T17:27:43.692Z,26.00
2022-11-28T17:30:15.204Z,26.00
2022-11-28T17:32:42.313Z,26.67
2022-11-28T17:35:17.151Z,23.42
2022-11-28T17:37:44.348Z,23.52
2022-11-28T17:40:29.889Z,23.33
2022-11-28T17:42:56.963Z,23.70
2022-11-28T17:45:25.341Z,20.38
2022-11-28T17:47:53.353Z,20.48
2022-11-28T17:50:21.315Z,20.35
2022-11-28T17:52:48.328Z,20.98
2022-11-28T17:55:15.317Z,26.60
2022-11-28T17:57:44.446Z,24.75
2022-11-28T18:00:14.522Z,23.77
2022-11-28T18:02:43.202Z,22.55
2022-11-28T18:05:10.609Z,26.35
2022-11-28T18:07:39.637Z,28.38
2022-11-28T18:10:11.193Z,25.65
2022-11-28T18:12:39.484Z,25.40
2022-11-28T18:15:10.280Z,22.65
2022-11-28T18:17:38.165Z,24.65
2022-11-28T18:20:05.939Z,23.77
2022-11-28T18:22:33.027Z,30.42
2022-11-28T18:25:02.028Z,26.70
2022-11-28T18:27:29.685Z,23.90
2022-11-28T18:29:56.749Z,22.65
2022-11-28T18:32:23.785Z,24.05
2022-11-28T18:34:51.072Z,22.67
2022-11-28T18:37:18.234Z,24.02
2022-11-28T18:39:47.025Z,25.80
2022-11-28T18:42:14.531Z,26.10
2022-11-28T18:44:41.642Z,24.73
2022-11-28T18:47:09.264Z,24.30
2022-11-28T18:49:37.147Z,23.90
2022-11-28T18:52:04.498Z,20.90
2022-11-28T18:54:33.870Z,22.92
2022-11-28T18:57:02.821Z,24.38
2022-11-28T18:59:29.887Z,26.35
2022-11-28T19:01:57.164Z,26.38
2022-11-28T19:04:24.360Z,26.83
2022-11-28T19:06:51.474Z,26.63
2022-11-28T19:09:21.314Z,26.10
2022-11-28T19:11:48.729Z,25.27
2022-11-28T19:14:17.800Z,25.15
2022-11-28T19:16:45.288Z,26.70
2022-11-28T19:19:17.579Z,26.38
2022-11-28T19:21:46.165Z,22.45
2022-11-28T19:24:13.701Z,24.70
2022-11-28T19:26:41.566Z,24.85
2022-11-28T19:29:09.856Z,20.00
2022-11-28T19:31:38.803Z,22.30
2022-11-28T19:34:12.046Z,24.52
2022-11-28T19:36:44.458Z,21.25
2022-11-28T19:39:25.417Z,25.33
2022-11-28T19:41:55.868Z,21.77
2022-11-28T19:44:24.835Z,19.52
2022-11-28T19:46:53.559Z,20.67
2022-11-28T19:49:23.037Z,18.50
2022-11-28T19:51:51.017Z,22.88
2022-11-28T19:54:20.576Z,22.90
2022-11-28T19:56:49.220Z,22.58
2022-11-28T19:59:17.701Z,26.55
2022-11-28T20:01:45.581Z,26.33
2022-11-28T20:04:14.169Z,22.88
2022-11-28T20:06:41.372Z,26.08
2022-11-28T20:09:12.508Z,25.50
2022-11-28T20:11:42.951Z,24.90
2022-11-28T20:14:14.140Z,28.83
2022-11-28T20:16:41.558Z,29.80
2022-11-28T20:19:11.320Z,24.88
2022-11-28T20:21:38.893Z,26.67
2022-11-28T20:24:07.622Z,24.27
2022-11-28T20:26:42.100Z,23.95
2022-11-28T20:29:12.779Z,28.90
2022-11-28T20:31:46.996Z,24.50
2022-11-28T20:34:17.848Z,25.35
2022-11-28T20:36:45.828Z,25.10
2022-11-28T20:39:13.675Z,22.50
2022-11-28T20:41:40.785Z,24.92
2022-11-28T20:44:08.320Z,26.52
2022-11-28T20:46:35.856Z,23.65
2022-11-28T20:49:07.317Z,26.83
2022-11-28T20:51:36.046Z,25.90
2022-11-28T20:54:04.998Z,25.40
2022-11-28T20:56:51.671Z,24.38
2022-11-28T20:59:22.065Z,29.08
2022-11-28T21:01:50.158Z,26.45
2022-11-28T21:04:18.786Z,26.40
2022-11-28T21:06:47.572Z,28.00
2022-11-28T21:09:15.606Z,24.58
2022-11-28T21:11:56.807Z,23.67
2022-11-28T21:14:25.397Z,29.90
2022-11-28T21:16:52.550Z,24.40
2022-11-28T21:19:19.621Z,26.02
2022-11-28T21:21:46.719Z,26.08
2022-11-28T21:24:14.611Z,23.50
2022-11-28T21:26:46.585Z,23.45
2022-11-28T21:29:18.708Z,24.55
2022-11-28T21:31:46.835Z,23.25
2022-11-28T21:34:15.577Z,22.35
2022-11-28T21:36:42.925Z,22.35
2022-11-28T21:39:20.120Z,20.10
2022-11-28T21:41:47.818Z,26.00
2022-11-28T21:44:14.999Z,20.75
2022-11-28T21:46:42.930Z,21.30
2022-11-28T21:49:10.126Z,22.08
2022-11-28T21:51:41.065Z,21.42
2022-11-28T21:54:11.029Z,22.73
2022-11-28T21:56:38.946Z,21.00
2022-11-28T21:59:06.804Z,20.38
2022-11-28T22:01:34.559Z,22.52
2022-11-28T22:04:03.063Z,25.45
2022-11-28T22:06:31.914Z,21.52
2022-11-28T22:09:08.371Z,22.00
2022-11-28T22:11:37.658Z,24.30
2022-11-28T22:14:05.719Z,21.40
2022-11-28T22:16:33.426Z,23.73
2022-11-28T22:19:01.648Z,21.23
2022-11-28T22:24:18.363Z,19.98
2022-11-28T22:26:45.703Z,20.30
2022-11-28T22:29:13.973Z,19.00
2022-11-28T22:31:41.321Z,21.45
2022-11-28T22:34:09.246Z,20.85
2022-11-28T22:36:37.234Z,23.55
2022-11-28T22:39:04.741Z,25.80
2022-11-28T22:41:31.885Z,25.58
2022-11-28T22:44:01.308Z,22.90
2022-11-28T22:46:31.006Z,25.95
2022-11-28T22:49:01.017Z,24.50
2022-11-28T22:51:31.428Z,24.42
2022-11-28T22:54:01.147Z,25.33
2022-11-28T22:56:31.894Z,26.38
2022-11-28T22:59:00.058Z,25.15
2022-11-28T23:01:30.440Z,20.77
2022-11-28T23:03:59.533Z,23.67
2022-11-28T23:06:29.907Z,24.23
2022-11-28T23:08:58.857Z,23.60
2022-11-28T23:11:30.424Z,25.38
2022-11-28T23:13:59.564Z,26.77
2022-11-28T23:16:34.058Z,27.23
2022-11-28T23:19:04.684Z,22.40
2022-11-28T23:21:37.491Z,26.58
2022-11-28T23:24:09.641Z,25.58
2022-11-28T23:26:38.513Z,21.80
2022-11-28T23:29:06.145Z,22.83
2022-11-28T23:31:36.876Z,23.35
2022-11-28T23:34:05.355Z,21.55
2022-11-28T23:36:42.051Z,24.30
2022-11-28T23:39:21.693Z,23.45
2022-11-28T23:41:49.571Z,21.90
2022-11-28T23:44:18.202Z,24.20
2022-11-28T23:46:46.476Z,22.00
2022-11-28T23:49:14.757Z,21.80
2022-11-28T23:51:43.005Z,25.85
2022-11-28T23:54:11.935Z,26.77
2022-11-28T23:56:40.661Z,22.50
2022-11-28T23:59:09.600Z,22.85
